Time;durP1;ratioP1;P1;durP2;ratioP2;P2;SDS_P1;SDS_P2;PMS_P1;PMS_P2;Temp;Humidity;BMP_temperature;BMP_pressure;BME280_temperature;BME280_humidity;BME280_pressure;Samples;Min_cycle;Max_cycle;Signal;HPM_P1;HPM_P2
2022/07/17 00:00:02;;;;;;;;;;;;;;;;;;1037079;28;4378;-52
2022/07/17 00:00:33;;;;;;;;;;;;;;;;;;1037075;28;1644;-47
2022/07/17 00:01:08;;;;;;;;;;;;;;;;;;1037079;28;4232;-52
2022/07/17 00:01:38;;;;;;;;;;;;;;;;;;1035493;28;1593;-49
2022/07/17 00:02:09;;;;;;;;;;;;;;;;;;1037571;28;4233;-50
2022/07/17 00:02:39;;;;;;;;;;;;;;;;;;1038546;28;1682;-50
2022/07/17 00:03:10;;;;;;;;;;;;;;;;;;1037471;28;3845;-51
2022/07/17 00:03:40;;;;;;;;;;;;;;;;;;1037546;28;1605;-53
2022/07/17 00:04:10;;;;;;;;;;;;;;;;;;1037641;28;4166;-51
2022/07/17 00:04:40;;;;;;;;;;;;;;;;;;1036762;28;1587;-51
2022/07/17 00:05:11;;;;;;;;;;;;;;;;;;1035520;28;3894;-52
2022/07/17 00:05:42;;;;;;;;;;;;;;;;;;1037578;28;1553;-52
2022/07/17 00:06:12;;;;;;;;;;;;;;;;;;1040598;28;3804;-49
2022/07/17 00:06:43;;;;;;;;;;;;;;;;;;1040202;28;1676;-50
2022/07/17 00:07:13;;;;;;;;;;;;;;;;;;1040963;28;3799;-48
2022/07/17 00:07:43;;;;;;;;;;;;;;;;;;1039907;28;1406;-49
2022/07/17 00:08:14;;;;;;;;;;;;;;;;;;1036904;28;3902;-51
2022/07/17 00:08:44;;;;;;;;;;;;;;;;;;1037324;28;1862;-52
2022/07/17 00:09:14;;;;;;;;;;;;;;;;;;1037257;28;4277;-50
2022/07/17 00:09:45;;;;;;;;;;;;;;;;;;1037509;28;1588;-49
2022/07/17 00:10:16;;;;;;;;;;;;;;;;;;1037982;28;3951;-52
2022/07/17 00:10:53;;;;;;;;;;;;;;;;;;1037893;28;1791;-54
2022/07/17 00:11:30;;;;;;;;;;;;;;;;;;1044802;28;3779;-51
2022/07/17 00:12:07;;;;;;;;;;;;;;;;;;1044457;28;3769;-52
2022/07/17 00:12:37;;;;;;;;;;;;;;;;;;1044590;28;1572;-51
2022/07/17 00:13:09;;;;;;;;;;;;;;;;;;1044862;28;4330;-50
2022/07/17 00:13:39;;;;;;;;;;;;;;;;;;1045392;28;1852;-50
2022/07/17 00:14:09;;;;;;;;;;;;;;;;;;1044460;28;3969;-51
2022/07/17 00:14:40;;;;;;;;;;;;;;;;;;1045003;28;1510;-50
2022/07/17 00:15:10;;;;;;;;;;;;;;;;;;1045504;28;3797;-50
2022/07/17 00:15:41;;;;;;;;;;;;;;;;;;1045569;28;1545;-50
2022/07/17 00:16:11;;;;;;;;;;;;;;;;;;1044721;28;3991;-50
2022/07/17 00:16:41;;;;;;;;;;;;;;;;;;1045828;28;1162;-51
2022/07/17 00:17:12;;;;;;;;;;;;;;;;;;1044264;28;4103;-49
2022/07/17 00:17:42;;;;;;;;;;;;;;;;;;1044632;28;1655;-51
2022/07/17 00:18:13;;;;;;;;;;;;;;;;;;1044502;28;4456;-50
2022/07/17 00:18:43;;;;;;;;;;;;;;;;;;1046164;28;1650;-51
2022/07/17 00:19:13;;;;;;;;;;;;;;;;;;1046445;28;4031;-50
2022/07/17 00:19:43;;;;;;;;;;;;;;;;;;1046961;28;1431;-50
2022/07/17 00:20:14;;;;;;;;;;;;;;;;;;1046063;28;4071;-51
2022/07/17 00:20:44;;;;;;;;;;;;;;;;;;1044360;28;1684;-52
2022/07/17 00:21:15;;;;;;;;;;;;;;;;;;1045981;28;3790;-49
2022/07/17 00:21:45;;;;;;;;;;;;;;;;;;1042345;28;1478;-54
2022/07/17 00:22:15;;;;;;;;;;;;;;;;;;1041537;28;3897;-50
2022/07/17 00:22:46;;;;;;;;;;;;;;;;;;1042162;28;1762;-51
2022/07/17 00:23:17;;;;;;;;;;;;;;;;;;1042297;28;3790;-53
2022/07/17 00:23:47;;;;;;;;;;;;;;;;;;1045220;28;3188;-51
2022/07/17 00:24:19;;;;;;;;;;;;;;;;;;1044734;28;3763;-54
2022/07/17 00:24:50;;;;;;;;;;;;;;;;;;1040852;28;1706;-49
2022/07/17 00:25:20;;;;;;;;;;;;;;;;;;1040252;28;3824;-51
2022/07/17 00:25:51;;;;;;;;;;;;;;;;;;1039666;28;1645;-51
2022/07/17 00:26:21;;;;;;;;;;;;;;;;;;1040641;28;4012;-52
2022/07/17 00:26:51;;;;;;;;;;;;;;;;;;1044827;28;1760;-51
2022/07/17 00:27:21;;;;;;;;;;;;;;;;;;1044762;28;3796;-50
2022/07/17 00:27:52;;;;;;;;;;;;;;;;;;1040477;28;1741;-50
2022/07/17 00:28:22;;;;;;;;;;;;;;;;;;1039521;28;3985;-51
2022/07/17 00:28:53;;;;;;;;;;;;;;;;;;1040936;28;1549;-51
2022/07/17 00:29:23;;;;;;;;;;;;;;;;;;1038226;28;3970;-53
2022/07/17 00:29:53;;;;;;;;;;;;;;;;;;1040566;28;2220;-51
2022/07/17 00:30:23;;;;;;;;;;;;;;;;;;1036548;28;3813;-50
2022/07/17 00:30:54;;;;;;;;;;;;;;;;;;1032396;28;1697;-55
2022/07/17 00:31:24;;;;;;;;;;;;;;;;;;1037469;28;3923;-50
2022/07/17 00:31:54;;;;;;;;;;;;;;;;;;1037988;28;1187;-50
2022/07/17 00:32:24;;;;;;;;;;;;;;;;;;1042037;28;3843;-52
2022/07/17 00:32:55;;;;;;;;;;;;;;;;;;1045068;28;1915;-52
2022/07/17 00:33:25;;;;;;;;;;;;;;;;;;1045231;28;3770;-52
2022/07/17 00:33:55;;;;;;;;;;;;;;;;;;1046478;28;1712;-49
2022/07/17 00:34:27;;;;;;;;;;;;;;;;;;1045557;28;3907;-51
2022/07/17 00:34:57;;;;;;;;;;;;;;;;;;1045579;28;1344;-53
2022/07/17 00:35:27;;;;;;;;;;;;;;;;;;1044457;28;4270;-53
2022/07/17 00:35:58;;;;;;;;;;;;;;;;;;1044769;28;1334;-50
2022/07/17 00:36:28;;;;;;;;;;;;;;;;;;1045280;28;3824;-52
2022/07/17 00:36:58;;;;;;;;;;;;;;;;;;1045892;28;1565;-53
2022/07/17 00:37:28;;;;;;;;;;;;;;;;;;1044602;28;3962;-53
2022/07/17 00:37:59;;;;;;;;;;;;;;;;;;1044772;28;1870;-52
2022/07/17 00:38:29;;;;;;;;;;;;;;;;;;1041867;28;3925;-53
2022/07/17 00:38:59;;;;;;;;;;;;;;;;;;1041584;28;3791;-53
2022/07/17 00:39:31;;;;;;;;;;;;;;;;;;1042630;28;1393;-50
2022/07/17 00:40:01;;;;;;;;;;;;;;;;;;1041635;28;3963;-53
2022/07/17 00:40:31;;;;;;;;;;;;;;;;;;1045234;28;1699;-48
2022/07/17 00:41:09;;;;;;;;;;;;;;;;;;1043783;28;3899;-50
2022/07/17 00:41:39;;;;;;;;;;;;;;;;;;1044078;28;1758;-54
2022/07/17 00:42:10;;;;;;;;;;;;;;;;;;1044661;28;4248;-50
2022/07/17 00:42:41;;;;;;;;;;;;;;;;;;1045453;28;1314;-53
2022/07/17 00:43:12;;;;;;;;;;;;;;;;;;1044349;28;3783;-52
2022/07/17 00:43:42;;;;;;;;;;;;;;;;;;1044891;28;1653;-51
2022/07/17 00:44:12;;;;;;;;;;;;;;;;;;1042021;28;3855;-51
2022/07/17 00:44:43;;;;;;;;;;;;;;;;;;1041613;28;3337;-50
2022/07/17 00:45:14;;;;;;;;;;;;;;;;;;1041387;28;4068;-52
2022/07/17 00:45:44;;;;;;;;;;;;;;;;;;1041945;28;1704;-49
2022/07/17 00:46:14;;;;;;;;;;;;;;;;;;1043996;28;4019;-49
2022/07/17 00:46:45;;;;;;;;;;;;;;;;;;1044456;28;1659;-51
2022/07/17 00:47:17;;;;;;;;;;;;;;;;;;1045742;28;4428;-50
2022/07/17 00:47:58;;;;;;;;;;;;;;;;;;1045512;28;1383;-51
2022/07/17 00:48:28;;;;;;;;;;;;;;;;;;1044134;28;4335;-49
2022/07/17 00:48:59;;;;;;;;;;;;;;;;;;1045252;28;1683;-51
2022/07/17 00:49:29;;;;;;;;;;;;;;;;;;1044684;28;3772;-50
2022/07/17 00:49:59;;;;;;;;;;;;;;;;;;1044736;28;3807;-51
2022/07/17 00:50:34;;;;;;;;;;;;;;;;;;1045594;28;1563;-50
2022/07/17 00:51:05;;;;;;;;;;;;;;;;;;1044801;28;4599;-50
2022/07/17 00:51:35;;;;;;;;;;;;;;;;;;1044462;28;1625;-50
2022/07/17 00:52:06;;;;;;;;;;;;;;;;;;1041728;28;4050;-53
2022/07/17 00:52:37;;;;;;;;;;;;;;;;;;1041224;28;1981;-50
2022/07/17 00:53:07;;;;;;;;;;;;;;;;;;1036947;28;3973;-51
2022/07/17 00:53:40;;;;;;;;;;;;;;;;;;1036785;28;1811;-51
2022/07/17 00:54:11;;;;;;;;;;;;;;;;;;1042420;28;4063;-48
2022/07/17 00:54:42;;;;;;;;;;;;;;;;;;1042244;28;2003;-51
2022/07/17 00:55:13;;;;;;;;;;;;;;;;;;1044627;28;4036;-54
2022/07/17 00:55:44;;;;;;;;;;;;;;;;;;1042246;28;1851;-53
2022/07/17 00:56:16;;;;;;;;;;;;;;;;;;1042593;28;3779;-52
2022/07/17 00:56:48;;;;;;;;;;;;;;;;;;1041713;28;1685;-50
2022/07/17 00:57:18;;;;;;;;;;;;;;;;;;1043019;28;4526;-55
2022/07/17 00:57:49;;;;;;;;;;;;;;;;;;1045290;28;1322;-52
2022/07/17 00:58:21;;;;;;;;;;;;;;;;;;1039145;28;3980;-54
2022/07/17 00:58:51;;;;;;;;;;;;;;;;;;1040338;28;1735;-48
2022/07/17 00:59:22;;;;;;;;;;;;;;;;;;1040530;28;3801;-50
2022/07/17 00:59:52;;;;;;;;;;;;;;;;;;1041494;28;1589;-51
2022/07/17 01:00:23;;;;;;;;;;;;;;;;;;1045048;28;4354;-50
2022/07/17 01:00:54;;;;;;;;;;;;;;;;;;1044891;28;1359;-49
2022/07/17 01:01:24;;;;;;;;;;;;;;;;;;1044716;28;3981;-51
2022/07/17 01:01:54;;;;;;;;;;;;;;;;;;1044506;28;1701;-51
2022/07/17 01:02:25;;;;;;;;;;;;;;;;;;1044103;28;4108;-51
2022/07/17 01:02:55;;;;;;;;;;;;;;;;;;1044451;28;1598;-51
2022/07/17 01:03:26;;;;;;;;;;;;;;;;;;1045311;28;3843;-53
2022/07/17 01:03:56;;;;;;;;;;;;;;;;;;1044305;28;1594;-50
2022/07/17 01:04:26;;;;;;;;;;;;;;;;;;1044624;28;3827;-51
2022/07/17 01:04:56;;;;;;;;;;;;;;;;;;1045406;28;1689;-51
2022/07/17 01:05:27;;;;;;;;;;;;;;;;;;1041725;28;3944;-52
2022/07/17 01:05:57;;;;;;;;;;;;;;;;;;1042704;28;1254;-52
2022/07/17 01:06:27;;;;;;;;;;;;;;;;;;1037673;28;3831;-51
2022/07/17 01:06:59;;;;;;;;;;;;;;;;;;1038345;28;1600;-51
2022/07/17 01:07:29;;;;;;;;;;;;;;;;;;1041845;28;3670;-51
2022/07/17 01:08:00;;;;;;;;;;;;;;;;;;1042077;28;4045;-51
2022/07/17 01:08:31;;;;;;;;;;;;;;;;;;1042251;28;1615;-50
2022/07/17 01:09:01;;;;;;;;;;;;;;;;;;1042084;28;4812;-53
2022/07/17 01:09:32;;;;;;;;;;;;;;;;;;1042218;28;1741;-53
2022/07/17 01:10:02;;;;;;;;;;;;;;;;;;1042162;28;4011;-51
2022/07/17 01:10:33;;;;;;;;;;;;;;;;;;1045422;28;1563;-49
2022/07/17 01:11:10;;;;;;;;;;;;;;;;;;1038929;28;4107;-51
2022/07/17 01:11:47;;;;;;;;;;;;;;;;;;1035935;28;1650;-51
2022/07/17 01:12:24;;;;;;;;;;;;;;;;;;1036801;28;3890;-54
2022/07/17 01:12:54;;;;;;;;;;;;;;;;;;1037313;28;1306;-52
2022/07/17 01:13:25;;;;;;;;;;;;;;;;;;1037702;28;3993;-50
2022/07/17 01:13:56;;;;;;;;;;;;;;;;;;1036882;28;1661;-54
2022/07/17 01:14:27;;;;;;;;;;;;;;;;;;1037585;28;3772;-49
2022/07/17 01:14:58;;;;;;;;;;;;;;;;;;1038103;28;1892;-53
2022/07/17 01:15:29;;;;;;;;;;;;;;;;;;1038321;28;3944;-48
2022/07/17 01:15:59;;;;;;;;;;;;;;;;;;1037652;28;4036;-51
2022/07/17 01:16:29;;;;;;;;;;;;;;;;;;1038558;28;1697;-48
2022/07/17 01:17:00;;;;;;;;;;;;;;;;;;1037783;28;3776;-53
2022/07/17 01:17:31;;;;;;;;;;;;;;;;;;1038065;28;1910;-53
2022/07/17 01:18:08;;;;;;;;;;;;;;;;;;1037353;28;4223;-50
2022/07/17 01:18:41;;;;;;;;;;;;;;;;;;1038433;28;1404;-50
2022/07/17 01:19:11;;;;;;;;;;;;;;;;;;1037632;28;4033;-51
2022/07/17 01:19:41;;;;;;;;;;;;;;;;;;1038455;28;1842;-47
2022/07/17 01:20:12;;;;;;;;;;;;;;;;;;1037900;28;4247;-50
2022/07/17 01:20:44;;;;;;;;;;;;;;;;;;1038307;28;1838;-50
2022/07/17 01:21:14;;;;;;;;;;;;;;;;;;1036983;28;3940;-54
2022/07/17 01:21:51;;;;;;;;;;;;;;;;;;1038218;28;1647;-52
2022/07/17 01:22:22;;;;;;;;;;;;;;;;;;1037830;28;3828;-54
2022/07/17 01:22:52;;;;;;;;;;;;;;;;;;1037748;28;3755;-49
2022/07/17 01:23:22;;;;;;;;;;;;;;;;;;1038044;28;4172;-49
2022/07/17 01:23:53;;;;;;;;;;;;;;;;;;1038195;28;1367;-51
2022/07/17 01:24:23;;;;;;;;;;;;;;;;;;1038177;28;3930;-53
2022/07/17 01:24:53;;;;;;;;;;;;;;;;;;1038644;28;1820;-54
2022/07/17 01:25:23;;;;;;;;;;;;;;;;;;1037800;28;3772;-47
2022/07/17 01:25:54;;;;;;;;;;;;;;;;;;1038002;28;1821;-53
2022/07/17 01:26:24;;;;;;;;;;;;;;;;;;1037340;28;4212;-52
2022/07/17 01:26:54;;;;;;;;;;;;;;;;;;1037966;28;1922;-52
2022/07/17 01:27:25;;;;;;;;;;;;;;;;;;1036075;28;4712;-51
2022/07/17 01:27:55;;;;;;;;;;;;;;;;;;1035442;28;1750;-50
2022/07/17 01:28:25;;;;;;;;;;;;;;;;;;1038124;28;3743;-53
2022/07/17 01:28:56;;;;;;;;;;;;;;;;;;1037604;28;1568;-51
2022/07/17 01:29:26;;;;;;;;;;;;;;;;;;1037992;28;3740;-55
2022/07/17 01:29:56;;;;;;;;;;;;;;;;;;1038161;28;1777;-52
2022/07/17 01:30:27;;;;;;;;;;;;;;;;;;1038195;28;3831;-50
2022/07/17 01:30:59;;;;;;;;;;;;;;;;;;1038140;28;1712;-51
2022/07/17 01:31:30;;;;;;;;;;;;;;;;;;1036855;28;5276;-55
2022/07/17 01:32:00;;;;;;;;;;;;;;;;;;1035853;28;4450;-49
2022/07/17 01:32:34;;;;;;;;;;;;;;;;;;1036517;28;1910;-52
2022/07/17 01:33:04;;;;;;;;;;;;;;;;;;1036264;28;3891;-52
2022/07/17 01:33:34;;;;;;;;;;;;;;;;;;1037884;28;1450;-51
2022/07/17 01:34:06;;;;;;;;;;;;;;;;;;1038122;28;3883;-52
2022/07/17 01:34:36;;;;;;;;;;;;;;;;;;1038087;28;1531;-51
2022/07/17 01:35:07;;;;;;;;;;;;;;;;;;1038803;28;4405;-52
2022/07/17 01:35:37;;;;;;;;;;;;;;;;;;1038130;28;1605;-50
2022/07/17 01:36:08;;;;;;;;;;;;;;;;;;1040254;28;3923;-51
2022/07/17 01:36:38;;;;;;;;;;;;;;;;;;1040554;28;1646;-52
2022/07/17 01:37:08;;;;;;;;;;;;;;;;;;1039910;28;3892;-51
2022/07/17 01:37:39;;;;;;;;;;;;;;;;;;1041100;28;1663;-47
2022/07/17 01:38:09;;;;;;;;;;;;;;;;;;1037351;28;3793;-51
2022/07/17 01:38:40;;;;;;;;;;;;;;;;;;1038317;28;1423;-52
2022/07/17 01:39:10;;;;;;;;;;;;;;;;;;1037687;28;4419;-52
2022/07/17 01:39:52;;;;;;;;;;;;;;;;;;1035947;28;1511;-54
2022/07/17 01:40:22;;;;;;;;;;;;;;;;;;1035734;28;3916;-51
2022/07/17 01:40:53;;;;;;;;;;;;;;;;;;1035508;28;2001;-50
2022/07/17 01:41:23;;;;;;;;;;;;;;;;;;1036563;28;3922;-53
2022/07/17 01:41:53;;;;;;;;;;;;;;;;;;1038119;28;2173;-51
2022/07/17 01:42:24;;;;;;;;;;;;;;;;;;1038420;28;3941;-55
2022/07/17 01:42:55;;;;;;;;;;;;;;;;;;1037771;28;2095;-53
2022/07/17 01:43:25;;;;;;;;;;;;;;;;;;1038776;28;3947;-50
2022/07/17 01:43:56;;;;;;;;;;;;;;;;;;1037795;28;1668;-54
2022/07/17 01:44:26;;;;;;;;;;;;;;;;;;1038042;28;4022;-53
2022/07/17 01:44:56;;;;;;;;;;;;;;;;;;1033405;28;1639;-52
2022/07/17 01:45:27;;;;;;;;;;;;;;;;;;1029788;28;4074;-51
2022/07/17 01:45:57;;;;;;;;;;;;;;;;;;1033522;28;1700;-51
2022/07/17 01:46:28;;;;;;;;;;;;;;;;;;1034046;28;3890;-51
2022/07/17 01:46:58;;;;;;;;;;;;;;;;;;1037655;28;1364;-51
2022/07/17 01:47:28;;;;;;;;;;;;;;;;;;1037928;28;3932;-49
2022/07/17 01:47:58;;;;;;;;;;;;;;;;;;1037510;28;1697;-51
2022/07/17 01:48:32;;;;;;;;;;;;;;;;;;1038238;28;3738;-51
2022/07/17 01:49:02;;;;;;;;;;;;;;;;;;1037098;28;3784;-54
2022/07/17 01:49:32;;;;;;;;;;;;;;;;;;1038744;28;1370;-50
2022/07/17 01:50:03;;;;;;;;;;;;;;;;;;1037601;28;3977;-52
2022/07/17 01:50:34;;;;;;;;;;;;;;;;;;1038767;28;1457;-49
2022/07/17 01:51:04;;;;;;;;;;;;;;;;;;1037321;28;4295;-49
2022/07/17 01:51:34;;;;;;;;;;;;;;;;;;1038772;28;1648;-51
2022/07/17 01:52:04;;;;;;;;;;;;;;;;;;1037343;28;3893;-51
2022/07/17 01:52:37;;;;;;;;;;;;;;;;;;1038289;28;1942;-50
2022/07/17 01:53:07;;;;;;;;;;;;;;;;;;1037829;28;4341;-50
2022/07/17 01:53:37;;;;;;;;;;;;;;;;;;1037680;28;1978;-52
2022/07/17 01:54:08;;;;;;;;;;;;;;;;;;1034149;28;3929;-51
2022/07/17 01:54:39;;;;;;;;;;;;;;;;;;1033870;28;2021;-53
2022/07/17 01:55:10;;;;;;;;;;;;;;;;;;1033731;28;3799;-50
2022/07/17 01:55:40;;;;;;;;;;;;;;;;;;1036417;28;1681;-48
2022/07/17 01:56:10;;;;;;;;;;;;;;;;;;1038564;28;4262;-50
2022/07/17 01:56:41;;;;;;;;;;;;;;;;;;1037588;28;1773;-53
2022/07/17 01:57:12;;;;;;;;;;;;;;;;;;1041934;28;3805;-50
2022/07/17 01:57:42;;;;;;;;;;;;;;;;;;1041633;28;1683;-50
2022/07/17 01:58:13;;;;;;;;;;;;;;;;;;1042109;28;3957;-51
2022/07/17 01:58:43;;;;;;;;;;;;;;;;;;1041368;28;1693;-50
2022/07/17 01:59:14;;;;;;;;;;;;;;;;;;1038389;28;5392;-46
2022/07/17 01:59:44;;;;;;;;;;;;;;;;;;1037995;28;1552;-48
2022/07/17 02:00:16;;;;;;;;;;;;;;;;;;1038013;28;4579;-47
2022/07/17 02:00:46;;;;;;;;;;;;;;;;;;1038385;28;1662;-51
2022/07/17 02:01:17;;;;;;;;;;;;;;;;;;1038131;28;4035;-49
2022/07/17 02:01:47;;;;;;;;;;;;;;;;;;1038296;28;2149;-49
2022/07/17 02:02:18;;;;;;;;;;;;;;;;;;1041858;28;4891;-53
2022/07/17 02:02:48;;;;;;;;;;;;;;;;;;1041734;28;1612;-50
2022/07/17 02:03:19;;;;;;;;;;;;;;;;;;1041741;28;3972;-52
2022/07/17 02:03:56;;;;;;;;;;;;;;;;;;1041021;28;1730;-49
2022/07/17 02:04:27;;;;;;;;;;;;;;;;;;1039672;28;3907;-51
2022/07/17 02:04:57;;;;;;;;;;;;;;;;;;1038013;28;1637;-50
2022/07/17 02:05:28;;;;;;;;;;;;;;;;;;1038536;28;4022;-51
2022/07/17 02:05:58;;;;;;;;;;;;;;;;;;1037656;28;1684;-50
2022/07/17 02:06:29;;;;;;;;;;;;;;;;;;1038110;28;3871;-50
2022/07/17 02:06:59;;;;;;;;;;;;;;;;;;1036845;28;3880;-51
2022/07/17 02:07:29;;;;;;;;;;;;;;;;;;1038369;28;1585;-50
2022/07/17 02:07:59;;;;;;;;;;;;;;;;;;1036794;28;3907;-50
2022/07/17 02:08:30;;;;;;;;;;;;;;;;;;1038360;28;1341;-51
2022/07/17 02:09:00;;;;;;;;;;;;;;;;;;1037032;28;3969;-49
2022/07/17 02:09:30;;;;;;;;;;;;;;;;;;1035425;28;1639;-53
2022/07/17 02:10:01;;;;;;;;;;;;;;;;;;1035809;28;4295;-50
2022/07/17 02:10:31;;;;;;;;;;;;;;;;;;1033842;28;1203;-50
2022/07/17 02:11:08;;;;;;;;;;;;;;;;;;1032867;28;3964;-49
2022/07/17 02:11:45;;;;;;;;;;;;;;;;;;1045399;28;1649;-48
2022/07/17 02:12:22;;;;;;;;;;;;;;;;;;1045753;28;3761;-52
2022/07/17 02:12:52;;;;;;;;;;;;;;;;;;1044976;28;1425;-50
2022/07/17 02:13:23;;;;;;;;;;;;;;;;;;1043847;28;3930;-52
2022/07/17 02:13:53;;;;;;;;;;;;;;;;;;1041471;28;1602;-51
2022/07/17 02:14:23;;;;;;;;;;;;;;;;;;1043023;28;3998;-49
2022/07/17 02:14:53;;;;;;;;;;;;;;;;;;1042880;28;1836;-51
2022/07/17 02:15:24;;;;;;;;;;;;;;;;;;1042856;28;3807;-52
2022/07/17 02:15:54;;;;;;;;;;;;;;;;;;1042887;28;1740;-53
2022/07/17 02:16:24;;;;;;;;;;;;;;;;;;1041237;28;3909;-53
2022/07/17 02:16:55;;;;;;;;;;;;;;;;;;1041143;28;1586;-52
2022/07/17 02:17:25;;;;;;;;;;;;;;;;;;1041978;28;3804;-49
2022/07/17 02:17:56;;;;;;;;;;;;;;;;;;1040852;28;1690;-53
2022/07/17 02:18:26;;;;;;;;;;;;;;;;;;1041694;28;4216;-50
2022/07/17 02:18:56;;;;;;;;;;;;;;;;;;1041660;28;1632;-49
2022/07/17 02:19:27;;;;;;;;;;;;;;;;;;1041105;28;4314;-49
2022/07/17 02:19:57;;;;;;;;;;;;;;;;;;1036631;28;1597;-51
2022/07/17 02:20:27;;;;;;;;;;;;;;;;;;1039656;28;4438;-51
2022/07/17 02:20:57;;;;;;;;;;;;;;;;;;1041803;28;1717;-54
2022/07/17 02:21:27;;;;;;;;;;;;;;;;;;1035571;28;4026;-51
2022/07/17 02:21:58;;;;;;;;;;;;;;;;;;1042152;28;1703;-50
2022/07/17 02:22:28;;;;;;;;;;;;;;;;;;1039496;28;3829;-50
2022/07/17 02:22:58;;;;;;;;;;;;;;;;;;1040079;28;2688;-51
2022/07/17 02:23:29;;;;;;;;;;;;;;;;;;1042081;28;3600;-51
2022/07/17 02:23:59;;;;;;;;;;;;;;;;;;1042470;28;4206;-49
2022/07/17 02:24:29;;;;;;;;;;;;;;;;;;1042250;28;1984;-46
2022/07/17 02:25:00;;;;;;;;;;;;;;;;;;1042460;28;3969;-53
2022/07/17 02:25:30;;;;;;;;;;;;;;;;;;1044738;28;1941;-51
2022/07/17 02:26:00;;;;;;;;;;;;;;;;;;1042414;28;3971;-48
2022/07/17 02:26:31;;;;;;;;;;;;;;;;;;1040983;28;1572;-50
2022/07/17 02:27:01;;;;;;;;;;;;;;;;;;1041380;28;4473;-54
2022/07/17 02:27:32;;;;;;;;;;;;;;;;;;1041278;28;1483;-52
2022/07/17 02:28:02;;;;;;;;;;;;;;;;;;1040658;28;4232;-51
2022/07/17 02:28:32;;;;;;;;;;;;;;;;;;1042348;28;1542;-53
2022/07/17 02:29:02;;;;;;;;;;;;;;;;;;1042327;28;3816;-49
2022/07/17 02:29:33;;;;;;;;;;;;;;;;;;1042946;28;1579;-52
2022/07/17 02:30:08;;;;;;;;;;;;;;;;;;1043365;28;3926;-51
2022/07/17 02:30:38;;;;;;;;;;;;;;;;;;1045779;28;1463;-49
2022/07/17 02:31:08;;;;;;;;;;;;;;;;;;1043320;28;3966;-51
2022/07/17 02:31:39;;;;;;;;;;;;;;;;;;1043604;28;1521;-52
2022/07/17 02:32:09;;;;;;;;;;;;;;;;;;1043780;28;4046;-49
2022/07/17 02:32:40;;;;;;;;;;;;;;;;;;1042588;28;1938;-53
2022/07/17 02:33:10;;;;;;;;;;;;;;;;;;1042157;28;3871;-52
2022/07/17 02:33:41;;;;;;;;;;;;;;;;;;1041803;28;1751;-52
2022/07/17 02:34:11;;;;;;;;;;;;;;;;;;1041923;28;3781;-48
2022/07/17 02:34:44;;;;;;;;;;;;;;;;;;1042070;28;1669;-50
2022/07/17 02:35:14;;;;;;;;;;;;;;;;;;1042565;28;4001;-49
2022/07/17 02:35:45;;;;;;;;;;;;;;;;;;1042888;28;1519;-51
2022/07/17 02:36:15;;;;;;;;;;;;;;;;;;1042902;28;4394;-51
2022/07/17 02:36:45;;;;;;;;;;;;;;;;;;1042645;28;1845;-48
2022/07/17 02:37:16;;;;;;;;;;;;;;;;;;1041379;28;3879;-48
2022/07/17 02:37:46;;;;;;;;;;;;;;;;;;1041767;28;1736;-49
2022/07/17 02:38:16;;;;;;;;;;;;;;;;;;1041431;28;3957;-52
2022/07/17 02:38:47;;;;;;;;;;;;;;;;;;1042569;28;1419;-48
2022/07/17 02:39:18;;;;;;;;;;;;;;;;;;1040624;28;3954;-51
2022/07/17 02:39:54;;;;;;;;;;;;;;;;;;1040586;28;1698;-49
2022/07/17 02:40:24;;;;;;;;;;;;;;;;;;1042443;28;3873;-51
2022/07/17 02:40:54;;;;;;;;;;;;;;;;;;1039000;28;1780;-48
2022/07/17 02:41:25;;;;;;;;;;;;;;;;;;1037785;28;4611;-53
2022/07/17 02:41:55;;;;;;;;;;;;;;;;;;1039329;28;1588;-50
2022/07/17 02:42:26;;;;;;;;;;;;;;;;;;1042095;28;4230;-54
2022/07/17 02:42:56;;;;;;;;;;;;;;;;;;1041025;28;1670;-48
2022/07/17 02:43:27;;;;;;;;;;;;;;;;;;1041901;28;4059;-52
2022/07/17 02:43:57;;;;;;;;;;;;;;;;;;1043391;28;1352;-51
2022/07/17 02:44:27;;;;;;;;;;;;;;;;;;1042144;28;4068;-53
2022/07/17 02:44:58;;;;;;;;;;;;;;;;;;1043279;28;2105;-48
2022/07/17 02:45:28;;;;;;;;;;;;;;;;;;1037791;28;3752;-53
2022/07/17 02:45:59;;;;;;;;;;;;;;;;;;1035891;28;1591;-50
2022/07/17 02:46:30;;;;;;;;;;;;;;;;;;1030162;28;5284;-50
2022/07/17 02:47:00;;;;;;;;;;;;;;;;;;1030298;28;3958;-52
2022/07/17 02:47:31;;;;;;;;;;;;;;;;;;1033773;28;2177;-52
2022/07/17 02:48:02;;;;;;;;;;;;;;;;;;1036559;28;3852;-52
2022/07/17 02:48:32;;;;;;;;;;;;;;;;;;1040838;28;1590;-51
2022/07/17 02:49:02;;;;;;;;;;;;;;;;;;1040900;28;4057;-52
2022/07/17 02:49:32;;;;;;;;;;;;;;;;;;1041045;28;1673;-47
2022/07/17 02:50:05;;;;;;;;;;;;;;;;;;1041709;28;3874;-49
2022/07/17 02:50:35;;;;;;;;;;;;;;;;;;1045134;28;1621;-50
2022/07/17 02:51:06;;;;;;;;;;;;;;;;;;1044347;28;3979;-53
2022/07/17 02:51:36;;;;;;;;;;;;;;;;;;1045602;28;1311;-51
2022/07/17 02:52:06;;;;;;;;;;;;;;;;;;1045186;28;4247;-53
2022/07/17 02:52:37;;;;;;;;;;;;;;;;;;1040922;28;1939;-47
2022/07/17 02:53:07;;;;;;;;;;;;;;;;;;1039918;28;4067;-52
2022/07/17 02:53:37;;;;;;;;;;;;;;;;;;1036876;28;3352;-48
2022/07/17 02:54:08;;;;;;;;;;;;;;;;;;1036346;28;3895;-49
2022/07/17 02:54:38;;;;;;;;;;;;;;;;;;1040921;28;1843;-52
2022/07/17 02:55:08;;;;;;;;;;;;;;;;;;1041582;28;4384;-52
2022/07/17 02:55:38;;;;;;;;;;;;;;;;;;1041746;28;1642;-48
2022/07/17 02:56:09;;;;;;;;;;;;;;;;;;1046021;28;4188;-50
2022/07/17 02:56:39;;;;;;;;;;;;;;;;;;1045461;28;1620;-49
2022/07/17 02:57:09;;;;;;;;;;;;;;;;;;1041860;28;4399;-52
2022/07/17 02:57:39;;;;;;;;;;;;;;;;;;1042556;28;1656;-50
2022/07/17 02:58:10;;;;;;;;;;;;;;;;;;1040625;28;3812;-52
2022/07/17 02:58:40;;;;;;;;;;;;;;;;;;1037763;28;1521;-52
2022/07/17 02:59:10;;;;;;;;;;;;;;;;;;1040472;28;4036;-49
2022/07/17 02:59:41;;;;;;;;;;;;;;;;;;1041451;28;1572;-49
2022/07/17 03:00:12;;;;;;;;;;;;;;;;;;1040889;28;4305;-53
2022/07/17 03:00:42;;;;;;;;;;;;;;;;;;1041649;28;1740;-48
2022/07/17 03:01:13;;;;;;;;;;;;;;;;;;1040012;28;3826;-50
2022/07/17 03:01:43;;;;;;;;;;;;;;;;;;1041719;28;1708;-52
2022/07/17 03:02:20;;;;;;;;;;;;;;;;;;1039384;28;3770;-49
2022/07/17 03:02:50;;;;;;;;;;;;;;;;;;1040078;28;1757;-53
2022/07/17 03:03:21;;;;;;;;;;;;;;;;;;1040552;28;3861;-49
2022/07/17 03:03:51;;;;;;;;;;;;;;;;;;1042464;28;1556;-50
2022/07/17 03:04:21;;;;;;;;;;;;;;;;;;1042386;28;3934;-51
2022/07/17 03:04:52;;;;;;;;;;;;;;;;;;1038980;28;1627;-52
2022/07/17 03:05:22;;;;;;;;;;;;;;;;;;1034478;28;4246;-52
2022/07/17 03:05:52;;;;;;;;;;;;;;;;;;1036360;28;1730;-50
2022/07/17 03:06:23;;;;;;;;;;;;;;;;;;1037548;28;4061;-50
2022/07/17 03:06:53;;;;;;;;;;;;;;;;;;1040618;28;1664;-52
2022/07/17 03:07:23;;;;;;;;;;;;;;;;;;1042188;28;3993;-53
2022/07/17 03:07:53;;;;;;;;;;;;;;;;;;1042941;28;1701;-49
2022/07/17 03:08:24;;;;;;;;;;;;;;;;;;1041651;28;4385;-52
2022/07/17 03:08:54;;;;;;;;;;;;;;;;;;1042684;28;1835;-50
2022/07/17 03:09:24;;;;;;;;;;;;;;;;;;1042057;28;3802;-50
2022/07/17 03:09:54;;;;;;;;;;;;;;;;;;1043060;28;1610;-49
2022/07/17 03:10:25;;;;;;;;;;;;;;;;;;1037660;28;4209;-50
2022/07/17 03:10:55;;;;;;;;;;;;;;;;;;1042886;28;1598;-50
2022/07/17 03:11:32;;;;;;;;;;;;;;;;;;1041674;28;4097;-49
2022/07/17 03:12:09;;;;;;;;;;;;;;;;;;1042142;28;4501;-53
2022/07/17 03:12:39;;;;;;;;;;;;;;;;;;1042653;28;1979;-51
2022/07/17 03:13:10;;;;;;;;;;;;;;;;;;1042802;28;3883;-50
2022/07/17 03:13:40;;;;;;;;;;;;;;;;;;1043057;28;1387;-50
2022/07/17 03:14:10;;;;;;;;;;;;;;;;;;1041793;28;3971;-53
2022/07/17 03:14:40;;;;;;;;;;;;;;;;;;1040788;28;1598;-51
2022/07/17 03:15:11;;;;;;;;;;;;;;;;;;1040476;28;4104;-49
2022/07/17 03:15:41;;;;;;;;;;;;;;;;;;1041801;28;1678;-50
2022/07/17 03:16:12;;;;;;;;;;;;;;;;;;1040381;28;3820;-51
2022/07/17 03:16:42;;;;;;;;;;;;;;;;;;1040593;28;1640;-50
2022/07/17 03:17:12;;;;;;;;;;;;;;;;;;1040096;28;3932;-50
2022/07/17 03:17:43;;;;;;;;;;;;;;;;;;1041429;28;1630;-54
2022/07/17 03:18:13;;;;;;;;;;;;;;;;;;1040724;28;3970;-51
2022/07/17 03:18:43;;;;;;;;;;;;;;;;;;1042069;28;1593;-49
2022/07/17 03:19:13;;;;;;;;;;;;;;;;;;1041366;28;3920;-50
2022/07/17 03:19:44;;;;;;;;;;;;;;;;;;1041595;28;1722;-50
2022/07/17 03:20:14;;;;;;;;;;;;;;;;;;1040806;28;4029;-49
2022/07/17 03:20:44;;;;;;;;;;;;;;;;;;1041408;28;1589;-49
2022/07/17 03:21:14;;;;;;;;;;;;;;;;;;1040128;28;4043;-51
2022/07/17 03:21:45;;;;;;;;;;;;;;;;;;1041003;28;1802;-51
2022/07/17 03:22:15;;;;;;;;;;;;;;;;;;1042233;28;3873;-49
2022/07/17 03:22:46;;;;;;;;;;;;;;;;;;1042857;28;1496;-52
2022/07/17 03:23:16;;;;;;;;;;;;;;;;;;1041894;28;3839;-48
2022/07/17 03:23:46;;;;;;;;;;;;;;;;;;1043196;28;1524;-52
2022/07/17 03:24:16;;;;;;;;;;;;;;;;;;1040856;28;3962;-50
2022/07/17 03:24:47;;;;;;;;;;;;;;;;;;1040802;28;1622;-52
2022/07/17 03:25:17;;;;;;;;;;;;;;;;;;1039335;28;4277;-56
2022/07/17 03:25:48;;;;;;;;;;;;;;;;;;1040792;28;1637;-51
2022/07/17 03:26:18;;;;;;;;;;;;;;;;;;1040445;28;4226;-52
2022/07/17 03:26:48;;;;;;;;;;;;;;;;;;1040443;28;1662;-55
2022/07/17 03:27:18;;;;;;;;;;;;;;;;;;1046638;28;4364;-49
2022/07/17 03:27:49;;;;;;;;;;;;;;;;;;1046995;28;1586;-51
2022/07/17 03:28:19;;;;;;;;;;;;;;;;;;1045967;28;3810;-50
2022/07/17 03:28:49;;;;;;;;;;;;;;;;;;1047038;28;1641;-49
2022/07/17 03:29:19;;;;;;;;;;;;;;;;;;1040581;28;3893;-48
2022/07/17 03:29:50;;;;;;;;;;;;;;;;;;1040644;28;1890;-50
2022/07/17 03:30:20;;;;;;;;;;;;;;;;;;1040616;28;3937;-53
2022/07/17 03:30:50;;;;;;;;;;;;;;;;;;1042899;28;1785;-51
2022/07/17 03:31:21;;;;;;;;;;;;;;;;;;1046412;28;4058;-52
2022/07/17 03:31:51;;;;;;;;;;;;;;;;;;1043025;28;1578;-51
2022/07/17 03:32:21;;;;;;;;;;;;;;;;;;1041676;28;3829;-53
2022/07/17 03:32:51;;;;;;;;;;;;;;;;;;1038269;28;1408;-52
2022/07/17 03:33:22;;;;;;;;;;;;;;;;;;1038008;28;4355;-54
2022/07/17 03:33:52;;;;;;;;;;;;;;;;;;1038806;28;1481;-50